createdAt,value
2018-09-01T00:00:20.309Z,0.00
2018-09-01T00:01:20.336Z,0.00
2018-09-01T00:02:20.391Z,0.00
2018-09-01T00:03:20.357Z,0.00
2018-09-01T00:04:20.381Z,0.00
2018-09-01T00:05:20.386Z,0.00
2018-09-01T00:06:20.420Z,0.00
2018-09-01T00:07:20.426Z,0.00
2018-09-01T00:08:20.437Z,0.00
2018-09-01T00:09:20.456Z,0.00
2018-09-01T00:10:20.460Z,0.00
2018-09-01T00:11:20.558Z,0.00
2018-09-01T00:12:20.492Z,0.00
2018-09-01T00:13:20.513Z,0.00
2018-09-01T00:14:20.543Z,0.00
2018-09-01T00:15:20.535Z,0.00
2018-09-01T00:16:20.620Z,0.00
2018-09-01T00:17:20.566Z,0.00
2018-09-01T00:18:20.589Z,0.00
2018-09-01T00:19:20.593Z,0.00
2018-09-01T00:20:20.613Z,0.00
2018-09-01T00:21:20.632Z,0.00
2018-09-01T00:22:20.640Z,0.00
2018-09-01T00:23:20.656Z,0.00
2018-09-01T00:24:20.674Z,0.00
2018-09-01T00:25:20.689Z,0.00
2018-09-01T00:26:20.698Z,0.00
2018-09-01T00:27:20.706Z,0.00
2018-09-01T00:28:20.723Z,0.00
2018-09-01T00:29:20.744Z,0.00
2018-09-01T00:30:20.764Z,0.00
2018-09-01T00:31:20.794Z,0.00
2018-09-01T00:32:20.791Z,0.00
2018-09-01T00:33:20.804Z,0.00
2018-09-01T00:34:20.811Z,0.00
2018-09-01T00:35:20.828Z,0.00
2018-09-01T00:36:20.845Z,0.00
2018-09-01T00:37:20.898Z,0.00
2018-09-01T00:38:21.176Z,0.00
2018-09-01T00:39:20.887Z,0.00
2018-09-01T00:40:20.904Z,0.00
2018-09-01T00:41:20.929Z,0.00
2018-09-01T00:42:20.931Z,0.00
2018-09-01T00:43:20.948Z,0.00
2018-09-01T00:44:20.961Z,0.00
2018-09-01T00:45:20.977Z,0.00
2018-09-01T00:46:20.990Z,0.00
2018-09-01T00:47:21.011Z,0.00
2018-09-01T00:48:21.024Z,0.00
2018-09-01T00:49:21.036Z,0.00
2018-09-01T00:50:21.050Z,0.00
2018-09-01T00:51:21.064Z,0.00
2018-09-01T00:52:21.094Z,0.00
2018-09-01T00:53:21.095Z,0.00
2018-09-01T00:54:21.117Z,0.00
2018-09-01T00:55:21.123Z,0.00
2018-09-01T00:56:21.142Z,0.00
2018-09-01T00:57:21.156Z,0.00
2018-09-01T00:58:21.182Z,0.00
2018-09-01T00:59:21.187Z,0.00
2018-09-01T01:00:21.219Z,0.00
2018-09-01T01:01:21.213Z,0.00
2018-09-01T01:02:21.230Z,0.00
2018-09-01T01:03:21.246Z,0.00
2018-09-01T01:04:21.579Z,0.00
2018-09-01T01:05:21.289Z,0.00
2018-09-01T01:06:21.293Z,0.00
2018-09-01T01:07:21.302Z,0.00
2018-09-01T01:08:21.318Z,0.00
2018-09-01T01:09:21.340Z,0.00
2018-09-01T01:10:21.347Z,0.00
2018-09-01T01:11:21.361Z,0.00
2018-09-01T01:12:21.378Z,0.00
2018-09-01T01:13:21.393Z,0.00
2018-09-01T01:14:21.421Z,0.00
2018-09-01T01:15:21.424Z,0.00
2018-09-01T01:16:21.436Z,0.00
2018-09-01T01:17:21.452Z,0.00
2018-09-01T01:18:21.467Z,0.00
2018-09-01T01:19:21.486Z,0.00
2018-09-01T01:20:21.503Z,0.00
2018-09-01T01:21:21.511Z,0.00
2018-09-01T01:22:21.528Z,0.00
2018-09-01T01:23:21.546Z,0.00
2018-09-01T01:24:21.555Z,0.00
2018-09-01T01:25:21.570Z,0.00
2018-09-01T01:26:21.583Z,0.00
2018-09-01T01:27:21.600Z,0.00
2018-09-01T01:28:21.612Z,0.00
2018-09-01T01:29:21.628Z,0.00
2018-09-01T01:30:21.653Z,0.00
2018-09-01T01:31:21.656Z,0.00
2018-09-01T01:32:21.674Z,0.00
2018-09-01T01:33:21.694Z,0.00
2018-09-01T01:34:21.697Z,0.00
2018-09-01T01:35:22.021Z,0.00
2018-09-01T01:36:21.756Z,0.00
2018-09-01T01:37:21.741Z,0.00
2018-09-01T01:38:21.755Z,0.00
2018-09-01T01:39:21.774Z,0.00
2018-09-01T01:40:21.785Z,0.00
2018-09-01T01:41:21.801Z,0.00
2018-09-01T01:42:21.813Z,0.00
2018-09-01T01:43:21.827Z,0.00
2018-09-01T01:44:21.881Z,0.00
2018-09-01T01:45:21.859Z,0.00
2018-09-01T01:46:21.868Z,0.00
2018-09-01T01:47:21.883Z,0.00
2018-09-01T01:48:21.899Z,0.00
2018-09-01T01:49:21.911Z,0.00
2018-09-01T01:50:21.925Z,0.00
2018-09-01T01:51:21.940Z,0.00
2018-09-01T01:52:21.952Z,0.00
2018-09-01T01:53:21.967Z,0.00
2018-09-01T01:54:21.988Z,0.00
2018-09-01T01:55:21.998Z,0.00
2018-09-01T01:56:22.010Z,0.00
2018-09-01T01:57:22.032Z,0.00
2018-09-01T01:58:22.038Z,0.00
2018-09-01T01:59:22.061Z,0.00
2018-09-01T02:00:22.065Z,0.00
2018-09-01T02:01:22.079Z,0.00
2018-09-01T02:02:22.095Z,0.00
2018-09-01T02:03:22.128Z,0.00
2018-09-01T02:04:22.145Z,0.00
2018-09-01T02:05:22.134Z,0.00
2018-09-01T02:06:22.150Z,0.00
2018-09-01T02:07:22.186Z,0.00
2018-09-01T02:08:22.184Z,0.00
2018-09-01T02:09:22.191Z,0.00
2018-09-01T02:10:22.206Z,0.00
2018-09-01T02:11:22.219Z,0.00
2018-09-01T02:12:22.234Z,0.00
2018-09-01T02:13:22.248Z,0.00
2018-09-01T02:14:22.276Z,0.00
2018-09-01T02:15:22.275Z,0.00
2018-09-01T02:16:22.291Z,0.00
2018-09-01T02:17:22.301Z,0.00
2018-09-01T02:18:22.313Z,4.00
2018-09-01T02:19:22.330Z,0.00
2018-09-01T02:20:22.344Z,0.00
2018-09-01T02:21:22.360Z,0.00
2018-09-01T02:22:22.371Z,0.00
2018-09-01T02:23:22.388Z,0.00
2018-09-01T02:24:22.398Z,0.00
2018-09-01T02:25:22.414Z,0.00
2018-09-01T02:26:22.428Z,0.00
2018-09-01T02:27:22.438Z,0.00
2018-09-01T02:28:22.453Z,0.00
2018-09-01T02:29:22.466Z,0.00
2018-09-01T02:30:22.479Z,0.00
2018-09-01T02:31:22.496Z,0.00
2018-09-01T02:32:22.512Z,0.00
2018-09-01T02:33:22.527Z,0.00
2018-09-01T02:34:22.534Z,0.00
2018-09-01T02:35:22.548Z,0.00
2018-09-01T02:36:22.564Z,0.00
2018-09-01T02:37:22.584Z,0.00
2018-09-01T02:38:22.592Z,0.00
2018-09-01T02:39:22.623Z,0.00
2018-09-01T02:40:22.655Z,0.00
2018-09-01T02:41:22.632Z,0.00
2018-09-01T02:42:22.645Z,0.00
2018-09-01T02:43:22.659Z,0.00
2018-09-01T02:44:22.675Z,0.00
2018-09-01T02:45:22.691Z,0.00
2018-09-01T02:46:22.702Z,0.00
2018-09-01T02:47:22.718Z,0.00
2018-09-01T02:48:22.729Z,0.00
2018-09-01T02:49:22.742Z,0.00
2018-09-01T02:50:22.766Z,0.00
2018-09-01T02:51:22.771Z,0.00
2018-09-01T02:52:22.784Z,0.00
2018-09-01T02:53:22.800Z,0.00
2018-09-01T02:54:22.814Z,0.00
2018-09-01T02:55:22.826Z,0.00
2018-09-01T02:56:22.839Z,0.00
2018-09-01T02:57:22.853Z,0.00
2018-09-01T02:58:22.867Z,0.00
2018-09-01T02:59:22.878Z,0.00
2018-09-01T03:00:22.897Z,0.00
2018-09-01T03:01:22.907Z,0.00
2018-09-01T03:02:22.920Z,0.00
2018-09-01T03:03:22.937Z,0.00
2018-09-01T03:04:22.952Z,0.00
2018-09-01T03:05:22.962Z,0.00
2018-09-01T03:06:22.976Z,0.00
2018-09-01T03:07:22.989Z,0.00
2018-09-01T03:08:23.006Z,0.00
2018-09-01T03:09:23.019Z,0.00
2018-09-01T03:10:23.031Z,0.00
2018-09-01T03:11:23.043Z,0.00
2018-09-01T03:12:23.058Z,0.00
2018-09-01T03:13:23.072Z,0.00
2018-09-01T03:14:23.134Z,0.00
2018-09-01T03:15:23.100Z,0.00
2018-09-01T03:16:23.113Z,0.00
2018-09-01T03:17:23.128Z,0.00
2018-09-01T03:18:23.144Z,0.00
2018-09-01T03:19:23.153Z,0.00
2018-09-01T03:20:23.168Z,0.00
2018-09-01T03:21:23.220Z,0.00
2018-09-01T03:22:23.194Z,0.00
2018-09-01T03:23:23.206Z,0.00
2018-09-01T03:24:23.232Z,0.00
2018-09-01T03:25:23.236Z,0.00
2018-09-01T03:26:23.247Z,0.00
2018-09-01T03:27:23.261Z,0.00
2018-09-01T03:28:23.275Z,0.00
2018-09-01T03:29:23.289Z,0.00
2018-09-01T03:30:23.303Z,0.00
2018-09-01T03:31:23.316Z,0.00
2018-09-01T03:32:23.329Z,0.00
2018-09-01T03:33:23.343Z,0.00
2018-09-01T03:34:23.355Z,0.00
2018-09-01T03:35:23.375Z,0.00
2018-09-01T03:36:23.386Z,0.00
2018-09-01T03:37:23.399Z,0.00
2018-09-01T03:38:23.416Z,0.00
2018-09-01T03:39:23.427Z,0.00
2018-09-01T03:40:23.449Z,0.00
2018-09-01T03:41:23.451Z,0.00
2018-09-01T03:42:23.465Z,0.00
2018-09-01T03:43:23.493Z,0.00
2018-09-01T03:44:23.571Z,0.00
2018-09-01T03:45:23.571Z,0.00
2018-09-01T03:46:23.524Z,0.00
2018-09-01T03:47:23.531Z,0.00
2018-09-01T03:48:23.546Z,0.00
2018-09-01T03:49:23.580Z,0.00
2018-09-01T03:50:23.577Z,0.00
2018-09-01T03:51:23.584Z,0.00
2018-09-01T03:52:23.600Z,0.00
2018-09-01T03:53:23.613Z,0.00
2018-09-01T03:54:23.626Z,0.00
2018-09-01T03:55:23.642Z,0.00
2018-09-01T03:56:23.660Z,0.00
2018-09-01T03:57:23.671Z,0.00
2018-09-01T03:58:23.680Z,0.00
2018-09-01T03:59:23.703Z,0.00
2018-09-01T04:00:23.707Z,0.00
2018-09-01T04:01:23.725Z,0.00
2018-09-01T04:02:23.734Z,0.00
2018-09-01T04:03:23.750Z,0.00
2018-09-01T04:04:23.766Z,4.00
2018-09-01T04:05:23.776Z,4.00
2018-09-01T04:06:23.793Z,4.00
2018-09-01T04:07:23.801Z,4.00
2018-09-01T04:08:23.820Z,4.00
2018-09-01T04:09:23.831Z,4.00
2018-09-01T04:10:23.845Z,4.00
2018-09-01T04:11:23.857Z,4.00
2018-09-01T04:12:23.868Z,4.00
2018-09-01T04:13:23.883Z,4.00
2018-09-01T04:14:23.899Z,0.00
2018-09-01T04:15:23.909Z,4.00
2018-09-01T04:17:23.939Z,4.00
2018-09-01T04:18:23.949Z,8.00
2018-09-01T04:19:23.963Z,4.00
2018-09-01T04:20:23.977Z,8.00
2018-09-01T04:21:23.991Z,4.00
2018-09-01T04:22:24.003Z,8.00
2018-09-01T04:23:24.016Z,8.00
2018-09-01T04:24:24.035Z,8.00
2018-09-01T04:25:24.044Z,8.00
2018-09-01T04:26:24.060Z,12.00
2018-09-01T04:27:24.098Z,12.00
2018-09-01T04:28:24.113Z,16.00
2018-09-01T04:29:24.096Z,16.00
2018-09-01T04:30:24.110Z,16.00
2018-09-01T04:31:24.126Z,20.00
2018-09-01T04:32:24.137Z,24.00
2018-09-01T04:33:24.152Z,28.00
2018-09-01T04:34:24.169Z,28.00
2018-09-01T04:35:24.178Z,36.00
2018-09-01T04:36:24.192Z,40.00
2018-09-01T04:37:24.206Z,44.00
2018-09-01T04:38:24.217Z,48.00
2018-09-01T04:39:24.230Z,52.00
2018-09-01T04:40:24.272Z,60.00
2018-09-01T04:41:24.273Z,64.00
2018-09-01T04:42:24.283Z,68.00
2018-09-01T04:43:24.283Z,76.00
2018-09-01T04:44:24.296Z,84.00
2018-09-01T04:45:24.312Z,88.00
2018-09-01T04:46:24.332Z,96.00
2018-09-01T04:47:24.356Z,108.00
2018-09-01T04:48:24.350Z,112.00
2018-09-01T04:49:24.367Z,120.00
2018-09-01T04:50:24.379Z,128.00
2018-09-01T04:51:24.393Z,136.00
2018-09-01T04:52:24.405Z,144.00
2018-09-01T04:53:24.417Z,156.00
2018-09-01T04:54:24.432Z,164.00
2018-09-01T04:55:24.445Z,176.00
2018-09-01T04:56:24.460Z,184.00
2018-09-01T04:57:24.472Z,196.00
2018-09-01T04:58:24.487Z,208.00
2018-09-01T04:59:24.500Z,220.00
2018-09-01T05:00:24.510Z,228.00
2018-09-01T05:01:24.595Z,240.00
2018-09-01T05:02:24.537Z,252.00
2018-09-01T05:03:24.551Z,264.00
2018-09-01T05:04:24.564Z,276.00
2018-09-01T05:05:24.579Z,292.00
2018-09-01T05:06:24.593Z,300.00
2018-09-01T05:07:24.610Z,316.00
2018-09-01T05:08:24.616Z,328.00
2018-09-01T05:09:24.631Z,340.00
2018-09-01T05:10:24.643Z,352.00
2018-09-01T05:11:24.661Z,364.00
2018-09-01T05:12:24.675Z,380.00
2018-09-01T05:13:24.690Z,392.00
2018-09-01T05:14:24.696Z,408.00
2018-09-01T05:15:24.721Z,420.00
2018-09-01T05:16:24.728Z,436.00
2018-09-01T05:17:24.736Z,448.00
2018-09-01T05:18:24.753Z,468.00
2018-09-01T05:19:24.764Z,480.00
2018-09-01T05:20:24.796Z,496.00
2018-09-01T05:21:24.790Z,512.00
2018-09-01T05:22:24.805Z,532.00
2018-09-01T05:23:24.818Z,544.00
2018-09-01T05:24:24.833Z,560.00
2018-09-01T05:25:24.844Z,576.00
2018-09-01T05:26:24.860Z,592.00
2018-09-01T05:27:24.869Z,604.00
2018-09-01T05:28:24.888Z,620.00
2018-09-01T05:29:24.899Z,636.00
2018-09-01T05:30:24.911Z,652.00
2018-09-01T05:31:24.934Z,668.00
2018-09-01T05:32:24.965Z,680.00
2018-09-01T05:33:24.958Z,696.00
2018-09-01T05:34:24.964Z,712.00
2018-09-01T05:35:24.981Z,720.00
2018-09-01T05:36:25.004Z,736.00
2018-09-01T05:37:25.005Z,740.00
2018-09-01T05:38:25.021Z,768.00
2018-09-01T05:39:25.041Z,776.00
2018-09-01T05:40:25.044Z,792.00
2018-09-01T05:41:25.058Z,812.00
2018-09-01T05:42:25.071Z,844.00
2018-09-01T05:43:25.084Z,892.00
2018-09-01T05:44:25.096Z,976.00
2018-09-01T05:45:25.111Z,1084.00
2018-09-01T05:46:25.127Z,1040.00
2018-09-01T05:47:25.140Z,944.00
2018-09-01T05:48:25.151Z,956.00
2018-09-01T05:49:25.165Z,968.00
2018-09-01T05:50:25.175Z,980.00
2018-09-01T05:51:25.195Z,992.00
2018-09-01T05:52:25.226Z,1020.00
2018-09-01T05:53:25.235Z,1052.00
2018-09-01T05:54:25.234Z,1064.00
2018-09-01T05:55:25.305Z,1088.00
2018-09-01T05:56:25.261Z,1088.00
2018-09-01T05:57:25.296Z,1116.00
2018-09-01T05:58:25.286Z,1128.00
2018-09-01T05:59:25.299Z,1140.00
2018-09-01T06:00:25.374Z,1152.00
2018-09-01T06:01:25.328Z,1188.00
2018-09-01T06:02:25.373Z,1256.00
2018-09-01T06:03:25.356Z,1464.00
2018-09-01T06:04:25.370Z,1552.00
2018-09-01T06:05:25.404Z,1400.00
2018-09-01T06:06:25.504Z,1244.00
2018-09-01T06:07:25.413Z,1232.00
2018-09-01T06:08:25.424Z,1244.00
2018-09-01T06:09:25.440Z,1252.00
2018-09-01T06:10:25.449Z,1260.00
2018-09-01T06:11:25.468Z,1372.00
2018-09-01T06:12:25.479Z,1460.00
2018-09-01T06:13:25.489Z,1368.00
2018-09-01T06:14:25.506Z,1332.00
2018-09-01T06:15:25.515Z,1420.00
2018-09-01T06:16:25.531Z,1548.00
2018-09-01T06:17:25.555Z,1428.00
2018-09-01T06:18:25.556Z,1352.00
2018-09-01T06:19:25.573Z,1364.00
2018-09-01T06:20:25.586Z,1368.00
2018-09-01T06:21:25.601Z,1372.00
2018-09-01T06:22:25.619Z,1384.00
2018-09-01T06:23:25.639Z,1404.00
2018-09-01T06:24:25.641Z,1416.00
2018-09-01T06:25:25.657Z,1432.00
2018-09-01T06:26:25.667Z,1444.00
2018-09-01T06:27:25.690Z,1456.00
2018-09-01T06:28:25.701Z,1472.00
2018-09-01T06:29:25.712Z,1484.00
2018-09-01T06:30:25.724Z,1500.00
2018-09-01T06:31:25.734Z,1512.00
2018-09-01T06:32:25.754Z,1520.00
2018-09-01T06:33:25.761Z,1528.00
2018-09-01T06:34:25.791Z,1536.00
2018-09-01T06:35:25.994Z,1544.00
2018-09-01T06:36:25.803Z,1552.00
2018-09-01T06:37:25.858Z,1556.00
2018-09-01T06:38:25.835Z,1568.00
2018-09-01T06:39:25.843Z,1584.00
2018-09-01T06:40:25.856Z,1592.00
2018-09-01T06:41:25.871Z,1608.00
2018-09-01T06:42:25.885Z,1620.00
2018-09-01T06:43:25.900Z,1640.00
2018-09-01T06:44:25.912Z,1652.00
2018-09-01T06:45:25.929Z,1668.00
2018-09-01T06:46:25.943Z,1684.00
2018-09-01T06:47:25.956Z,1704.00
2018-09-01T06:48:25.967Z,1712.00
2018-09-01T06:49:26.043Z,1724.00
2018-09-01T06:50:26.045Z,1736.00
2018-09-01T06:51:26.059Z,1744.00
2018-09-01T06:52:26.024Z,1760.00
2018-09-01T06:53:26.043Z,1772.00
2018-09-01T06:54:26.050Z,1776.00
2018-09-01T06:55:26.082Z,1788.00
2018-09-01T06:56:26.097Z,1792.00
2018-09-01T06:57:26.091Z,1800.00
2018-09-01T06:58:26.108Z,1808.00
2018-09-01T06:59:26.247Z,1816.00
2018-09-01T07:00:26.164Z,1824.00
2018-09-01T07:01:26.151Z,1836.00
2018-09-01T07:02:26.161Z,1836.00
2018-09-01T07:03:26.176Z,1848.00
2018-09-01T07:04:26.189Z,1860.00
2018-09-01T07:05:26.204Z,1864.00
2018-09-01T07:06:26.217Z,1872.00
2018-09-01T07:07:26.246Z,1880.00
2018-09-01T07:08:26.245Z,1884.00
2018-09-01T07:09:26.259Z,1888.00
2018-09-01T07:10:26.279Z,1896.00
2018-09-01T07:11:26.285Z,1900.00
2018-09-01T07:12:26.304Z,1912.00
2018-09-01T07:13:26.312Z,1916.00
2018-09-01T07:14:26.329Z,1932.00
2018-09-01T07:15:26.345Z,1940.00
2018-09-01T07:16:26.357Z,1944.00
2018-09-01T07:17:26.368Z,1956.00
2018-09-01T07:18:26.378Z,1964.00
2018-09-01T07:19:26.389Z,1972.00
2018-09-01T07:20:26.408Z,1988.00
2018-09-01T07:21:26.417Z,1996.00
2018-09-01T07:22:26.429Z,2008.00
2018-09-01T07:23:26.443Z,2020.00
2018-09-01T07:24:26.460Z,2028.00
2018-09-01T07:25:26.477Z,2048.00
2018-09-01T07:26:26.587Z,2056.00
2018-09-01T07:27:26.504Z,2072.00
2018-09-01T07:28:26.517Z,2080.00
2018-09-01T07:29:26.533Z,2096.00
2018-09-01T07:30:26.707Z,2100.00
2018-09-01T07:31:26.949Z,2116.00
2018-09-01T07:32:26.588Z,2116.00
2018-09-01T07:33:26.589Z,2124.00
2018-09-01T07:34:26.599Z,2136.00
2018-09-01T07:35:26.612Z,2144.00
2018-09-01T07:36:26.627Z,2152.00
2018-09-01T07:37:26.653Z,2168.00
2018-09-01T07:38:26.654Z,2180.00
2018-09-01T07:39:26.670Z,2196.00
2018-09-01T07:40:26.684Z,2200.00
2018-09-01T07:41:26.700Z,2212.00
2018-09-01T07:42:26.711Z,2224.00
2018-09-01T07:43:26.732Z,2236.00
2018-09-01T07:44:26.739Z,2248.00
2018-09-01T07:45:26.755Z,2260.00
2018-09-01T07:46:26.771Z,2272.00
2018-09-01T07:47:26.785Z,2292.00
2018-09-01T07:48:26.801Z,2296.00
2018-09-01T07:49:26.811Z,2312.00
2018-09-01T07:50:26.824Z,2328.00
2018-09-01T07:51:26.850Z,2344.00
2018-09-01T07:52:26.853Z,2356.00
2018-09-01T07:53:26.867Z,2376.00
2018-09-01T07:54:26.884Z,2392.00
2018-09-01T07:55:26.904Z,2400.00
2018-09-01T07:56:26.918Z,2412.00
2018-09-01T07:57:26.929Z,2424.00
2018-09-01T07:58:26.959Z,2436.00
2018-09-01T07:59:27.261Z,2456.00
2018-09-01T08:00:26.971Z,2464.00
2018-09-01T08:01:26.982Z,2480.00
2018-09-01T08:02:26.996Z,2484.00
2018-09-01T08:03:27.014Z,2500.00
2018-09-01T08:04:27.028Z,2512.00
2018-09-01T08:05:27.042Z,2516.00
2018-09-01T08:06:27.054Z,2524.00
2018-09-01T08:07:27.119Z,2544.00
2018-09-01T08:08:27.080Z,2548.00
2018-09-01T08:09:27.094Z,2564.00
2018-09-01T08:10:27.109Z,2568.00
2018-09-01T08:11:27.126Z,2576.00
2018-09-01T08:12:27.138Z,2576.00
2018-09-01T08:13:27.155Z,2580.00
2018-09-01T08:14:27.207Z,2600.00
2018-09-01T08:15:27.181Z,2604.00
2018-09-01T08:16:27.196Z,2600.00
2018-09-01T08:17:27.215Z,2612.00
2018-09-01T08:18:27.223Z,2624.00
2018-09-01T08:19:27.238Z,2628.00
2018-09-01T08:20:27.252Z,2628.00
2018-09-01T08:21:27.267Z,2636.00
2018-09-01T08:22:27.825Z,2632.00
2018-09-01T08:23:27.294Z,2656.00
2018-09-01T08:24:27.311Z,2660.00
2018-09-01T08:25:27.326Z,2668.00
2018-09-01T08:26:27.340Z,2672.00
2018-09-01T08:27:27.377Z,2680.00
2018-09-01T08:28:27.380Z,2676.00
2018-09-01T08:29:27.382Z,2696.00
2018-09-01T08:30:27.400Z,2768.00
2018-09-01T08:31:27.422Z,2720.00
2018-09-01T08:32:27.430Z,2728.00
2018-09-01T08:33:27.492Z,2688.00
2018-09-01T08:34:27.456Z,2752.00
2018-09-01T08:35:27.468Z,2768.00
2018-09-01T08:36:27.487Z,2792.00
2018-09-01T08:37:27.530Z,2808.00
2018-09-01T08:38:27.536Z,2836.00
2018-09-01T08:39:27.528Z,2832.00
2018-09-01T08:40:27.541Z,2840.00
2018-09-01T08:41:27.558Z,2836.00
2018-09-01T08:42:27.575Z,2840.00
2018-09-01T08:43:27.586Z,2888.00
2018-09-01T08:44:27.599Z,2908.00
2018-09-01T08:45:27.713Z,2912.00
2018-09-01T08:46:27.631Z,2896.00
2018-09-01T08:47:27.652Z,2944.00
2018-09-01T08:48:27.658Z,2968.00
2018-09-01T08:49:27.680Z,2996.00
2018-09-01T08:50:27.696Z,2996.00
2018-09-01T08:51:27.706Z,3012.00
2018-09-01T08:52:27.717Z,3028.00
2018-09-01T08:53:27.735Z,3112.00
2018-09-01T08:54:27.751Z,3216.00
2018-09-01T08:55:27.757Z,3240.00
2018-09-01T08:56:27.815Z,3268.00
2018-09-01T08:57:27.790Z,3268.00
2018-09-01T08:58:27.804Z,3112.00
2018-09-01T08:59:27.820Z,3324.00
2018-09-01T09:00:28.001Z,3296.00
2018-09-01T09:01:27.854Z,3336.00
2018-09-01T09:02:27.863Z,3260.00
2018-09-01T09:03:27.876Z,3316.00
2018-09-01T09:04:27.899Z,3256.00
2018-09-01T09:05:27.951Z,3256.00
2018-09-01T09:06:27.923Z,3236.00
2018-09-01T09:07:27.945Z,2868.00
2018-09-01T09:08:27.951Z,3240.00
2018-09-01T09:09:28.008Z,3312.00
2018-09-01T09:10:27.993Z,3380.00
2018-09-01T09:11:28.002Z,3484.00
2018-09-01T09:12:28.008Z,3608.00
2018-09-01T09:13:28.029Z,1936.00
2018-09-01T09:14:28.049Z,1844.00
2018-09-01T09:15:28.054Z,3456.00
2018-09-01T09:16:28.075Z,3432.00
2018-09-01T09:17:28.088Z,3416.00
2018-09-01T09:18:28.141Z,3444.00
2018-09-01T09:19:28.112Z,3528.00
2018-09-01T09:20:28.152Z,3588.00
2018-09-01T09:21:28.486Z,3676.00
2018-09-01T09:22:28.157Z,3320.00
2018-09-01T09:23:28.179Z,2356.00
2018-09-01T09:25:28.212Z,2412.00
2018-09-01T09:26:28.413Z,2984.00
2018-09-01T09:27:28.233Z,3996.00
2018-09-01T09:28:28.256Z,2676.00
2018-09-01T09:29:28.262Z,2276.00
2018-09-01T09:30:28.284Z,4008.00
2018-09-01T09:31:28.345Z,2256.00
2018-09-01T09:32:28.325Z,2148.00
2018-09-01T09:33:28.321Z,2212.00
2018-09-01T09:34:28.392Z,2192.00
2018-09-01T09:35:28.353Z,2172.00
2018-09-01T09:36:28.560Z,3672.00
2018-09-01T09:37:28.383Z,3840.00
2018-09-01T09:38:28.393Z,3996.00
2018-09-01T09:39:28.413Z,4016.00
2018-09-01T09:40:28.420Z,3992.00
2018-09-01T09:41:28.531Z,3968.00
2018-09-01T09:42:28.448Z,2508.00
2018-09-01T09:43:28.461Z,2216.00
2018-09-01T09:44:28.533Z,3980.00
2018-09-01T09:45:28.493Z,4000.00
2018-09-01T09:46:28.575Z,3968.00
2018-09-01T09:47:28.521Z,3908.00
2018-09-01T09:48:29.205Z,3868.00
2018-09-01T09:49:28.553Z,3844.00
2018-09-01T09:50:28.567Z,3872.00
2018-09-01T09:51:28.581Z,2280.00
2018-09-01T09:52:28.603Z,2376.00
2018-09-01T09:53:28.623Z,2456.00
2018-09-01T09:54:28.625Z,2476.00
2018-09-01T09:55:28.639Z,2464.00
2018-09-01T09:56:28.707Z,4124.00
2018-09-01T09:57:28.702Z,4328.00
2018-09-01T09:58:28.687Z,3332.00
2018-09-01T09:59:28.701Z,3232.00
2018-09-01T10:00:28.716Z,3268.00
2018-09-01T10:01:28.730Z,4480.00
2018-09-01T10:02:28.852Z,4344.00
2018-09-01T10:03:28.769Z,4304.00
2018-09-01T10:04:28.775Z,4272.00
2018-09-01T10:05:28.848Z,4160.00
2018-09-01T10:06:28.805Z,3996.00
2018-09-01T10:07:28.819Z,3904.00
2018-09-01T10:08:28.834Z,3892.00
2018-09-01T10:09:28.854Z,3928.00
2018-09-01T10:10:28.863Z,3928.00
2018-09-01T10:11:28.978Z,3976.00
2018-09-01T10:12:28.896Z,4020.00
2018-09-01T10:13:28.911Z,3976.00
2018-09-01T10:14:28.922Z,2476.00
2018-09-01T10:15:28.940Z,2340.00
2018-09-01T10:16:28.952Z,2268.00
2018-09-01T10:17:28.968Z,2244.00
2018-09-01T10:18:28.986Z,2308.00
2018-09-01T10:19:29.013Z,2392.00
2018-09-01T10:20:29.074Z,2480.00
2018-09-01T10:21:29.027Z,2524.00
2018-09-01T10:22:29.042Z,2564.00
2018-09-01T10:23:29.060Z,2620.00
2018-09-01T10:24:29.073Z,2684.00
2018-09-01T10:25:29.087Z,2760.00
2018-09-01T10:26:29.101Z,4496.00
2018-09-01T10:27:29.133Z,3188.00
2018-09-01T10:28:29.132Z,4484.00
2018-09-01T10:29:29.173Z,4332.00
2018-09-01T10:30:29.177Z,4728.00
2018-09-01T10:31:29.179Z,4560.00
2018-09-01T10:32:29.190Z,4772.00
2018-09-01T10:33:29.220Z,4752.00
2018-09-01T10:34:29.224Z,4232.00
2018-09-01T10:35:29.241Z,4280.00
2018-09-01T10:36:29.252Z,5228.00
2018-09-01T10:37:29.295Z,5484.00
2018-09-01T10:38:29.310Z,5460.00
2018-09-01T10:39:29.297Z,4212.00
2018-09-01T10:40:29.316Z,3616.00
2018-09-01T10:41:29.334Z,3376.00
2018-09-01T10:42:29.343Z,3084.00
2018-09-01T10:43:29.364Z,2812.00
2018-09-01T10:44:29.378Z,2592.00
2018-09-01T10:45:29.388Z,2440.00
2018-09-01T10:46:29.402Z,2332.00
2018-09-01T10:47:29.418Z,2268.00
2018-09-01T10:48:29.434Z,2280.00
2018-09-01T10:49:29.449Z,2300.00
2018-09-01T10:50:29.463Z,2300.00
2018-09-01T10:51:29.499Z,2308.00
2018-09-01T10:52:29.537Z,2344.00
2018-09-01T10:53:29.513Z,2384.00
2018-09-01T10:54:29.572Z,2408.00
2018-09-01T10:55:29.555Z,2452.00
2018-09-01T10:56:29.557Z,2512.00
2018-09-01T10:57:29.569Z,2580.00
2018-09-01T10:58:29.586Z,2668.00
2018-09-01T10:59:29.737Z,2744.00
2018-09-01T11:00:29.620Z,2828.00
2018-09-01T11:01:29.632Z,2948.00
2018-09-01T11:02:29.646Z,3164.00
2018-09-01T11:03:29.659Z,4672.00
2018-09-01T11:04:29.674Z,4732.00
2018-09-01T11:05:29.696Z,4788.00
2018-09-01T11:06:29.706Z,4808.00
2018-09-01T11:07:29.719Z,4756.00
2018-09-01T11:08:29.740Z,4768.00
2018-09-01T11:09:29.853Z,4752.00
2018-09-01T11:10:29.764Z,4704.00
2018-09-01T11:11:29.780Z,4664.00
2018-09-01T11:12:29.795Z,4632.00
2018-09-01T11:13:29.816Z,4628.00
2018-09-01T11:14:29.826Z,4676.00
2018-09-01T11:15:29.848Z,4732.00
2018-09-01T11:16:29.857Z,4788.00
2018-09-01T11:17:29.881Z,4952.00
2018-09-01T11:18:29.887Z,4920.00
2018-09-01T11:19:29.907Z,4924.00
2018-09-01T11:20:29.920Z,4924.00
2018-09-01T11:21:29.938Z,4828.00
2018-09-01T11:22:29.949Z,3240.00
2018-09-01T11:23:29.965Z,3108.00
2018-09-01T11:24:29.978Z,3168.00
2018-09-01T11:25:29.994Z,3356.00
2018-09-01T11:26:30.209Z,4176.00
2018-09-01T11:27:30.080Z,5116.00
2018-09-01T11:28:30.041Z,4768.00
2018-09-01T11:29:30.171Z,5212.00
2018-09-01T11:30:30.112Z,5492.00
2018-09-01T11:31:30.087Z,4192.00
2018-09-01T11:32:30.118Z,4472.00
2018-09-01T11:33:30.115Z,5048.00
2018-09-01T11:34:30.253Z,5608.00
2018-09-01T11:35:30.152Z,5972.00
2018-09-01T11:36:30.164Z,5224.00
2018-09-01T11:37:30.177Z,4676.00
2018-09-01T11:38:30.194Z,4460.00
2018-09-01T11:39:30.210Z,3976.00
2018-09-01T11:40:30.233Z,3864.00
2018-09-01T11:41:30.263Z,3796.00
2018-09-01T11:42:30.347Z,3672.00
2018-09-01T11:43:30.273Z,3476.00
2018-09-01T11:44:30.289Z,3308.00
2018-09-01T11:45:30.308Z,3156.00
2018-09-01T11:46:30.315Z,3040.00
2018-09-01T11:47:30.334Z,2920.00
2018-09-01T11:48:30.373Z,2828.00
2018-09-01T11:49:30.364Z,2736.00
2018-09-01T11:50:30.381Z,2676.00
2018-09-01T11:51:30.394Z,2664.00
2018-09-01T11:52:30.425Z,2680.00
2018-09-01T11:53:30.452Z,2712.00
2018-09-01T11:54:30.451Z,2764.00
2018-09-01T11:55:30.465Z,2844.00
2018-09-01T11:56:30.496Z,2952.00
2018-09-01T11:57:30.799Z,3092.00
2018-09-01T11:58:30.509Z,3260.00
2018-09-01T11:59:30.519Z,3416.00
2018-09-01T12:00:30.535Z,3560.00
2018-09-01T12:01:30.581Z,3736.00
2018-09-01T12:02:30.566Z,3916.00
2018-09-01T12:03:30.585Z,4084.00
2018-09-01T12:04:30.597Z,4236.00
2018-09-01T12:05:30.629Z,4360.00
2018-09-01T12:06:30.625Z,5104.00
2018-09-01T12:07:30.641Z,4728.00
2018-09-01T12:08:30.665Z,4692.00
2018-09-01T12:09:30.679Z,4672.00
2018-09-01T12:10:30.688Z,4780.00
2018-09-01T12:11:30.735Z,4564.00
2018-09-01T12:12:30.720Z,4504.00
2018-09-01T12:13:30.734Z,4492.00
2018-09-01T12:14:30.753Z,4656.00
2018-09-01T12:15:30.769Z,5664.00
2018-09-01T12:16:30.781Z,5608.00
2018-09-01T12:17:30.802Z,5556.00
2018-09-01T12:18:30.811Z,5484.00
2018-09-01T12:19:31.040Z,5240.00
2018-09-01T12:20:30.847Z,5040.00
2018-09-01T12:21:30.888Z,4904.00
2018-09-01T12:22:30.876Z,4760.00
2018-09-01T12:23:30.891Z,4684.00
2018-09-01T12:24:30.907Z,4600.00
2018-09-01T12:25:31.058Z,4540.00
2018-09-01T12:26:30.936Z,4504.00
2018-09-01T12:27:30.950Z,4528.00
2018-09-01T12:28:30.986Z,4528.00
2018-09-01T12:29:30.984Z,4528.00
2018-09-01T12:30:31.029Z,4568.00
2018-09-01T12:31:31.016Z,4628.00
2018-09-01T12:32:31.037Z,4692.00
2018-09-01T12:33:31.060Z,4796.00
2018-09-01T12:34:31.060Z,4952.00
2018-09-01T12:35:31.095Z,5128.00